sensor_id;sensor_type;location;lat;lon;timestamp;temperature;humidity
10472;DHT22;5283;48.876;8.962;2023-01-01T00:01:36;10.70;99.90
10472;DHT22;5283;48.876;8.962;2023-01-01T00:04:09;10.90;99.90
10472;DHT22;5283;48.876;8.962;2023-01-01T00:06:36;11.00;99.90
10472;DHT22;5283;48.876;8.962;2023-01-01T00:09:03;11.00;99.90
10472;DHT22;5283;48.876;8.962;2023-01-01T00:11:48;11.10;99.90
10472;DHT22;5283;48.876;8.962;2023-01-01T00:14:15;11.10;99.90
10472;DHT22;5283;48.876;8.962;2023-01-01T00:16:42;11.00;99.90
10472;DHT22;5283;48.876;8.962;2023-01-01T00:19:08;11.10;99.90
10472;DHT22;5283;48.876;8.962;2023-01-01T00:21:35;11.00;99.90
10472;DHT22;5283;48.876;8.962;2023-01-01T00:24:02;10.90;99.90
10472;DHT22;5283;48.876;8.962;2023-01-01T00:26:29;10.90;99.90
10472;DHT22;5283;48.876;8.962;2023-01-01T00:28:59;11.00;99.90
10472;DHT22;5283;48.876;8.962;2023-01-01T00:31:26;11.20;99.90
10472;DHT22;5283;48.876;8.962;2023-01-01T00:33:54;11.30;99.90
10472;DHT22;5283;48.876;8.962;2023-01-01T00:36:23;11.40;99.90
10472;DHT22;5283;48.876;8.962;2023-01-01T00:38:50;11.40;99.90
10472;DHT22;5283;48.876;8.962;2023-01-01T00:41:17;11.40;99.90
10472;DHT22;5283;48.876;8.962;2023-01-01T00:43:44;11.50;99.90
10472;DHT22;5283;48.876;8.962;2023-01-01T00:46:11;11.50;99.90
10472;DHT22;5283;48.876;8.962;2023-01-01T00:48:38;11.50;99.90
10472;DHT22;5283;48.876;8.962;2023-01-01T00:51:06;11.50;99.90
10472;DHT22;5283;48.876;8.962;2023-01-01T00:53:33;11.50;99.90
10472;DHT22;5283;48.876;8.962;2023-01-01T00:56:00;11.50;99.90
10472;DHT22;5283;48.876;8.962;2023-01-01T00:58:27;11.40;99.90
10472;DHT22;5283;48.876;8.962;2023-01-01T01:00:54;11.30;99.90
10472;DHT22;5283;48.876;8.962;2023-01-01T01:03:21;11.30;99.90
10472;DHT22;5283;48.876;8.962;2023-01-01T01:05:56;11.30;99.90
10472;DHT22;5283;48.876;8.962;2023-01-01T01:08:27;11.30;99.90
10472;DHT22;5283;48.876;8.962;2023-01-01T01:11:07;11.40;99.90
10472;DHT22;5283;48.876;8.962;2023-01-01T01:13:34;11.30;99.90
10472;DHT22;5283;48.876;8.962;2023-01-01T01:16:14;11.20;99.90
10472;DHT22;5283;48.876;8.962;2023-01-01T01:18:42;11.20;99.90
10472;DHT22;5283;48.876;8.962;2023-01-01T01:21:09;11.20;99.90
10472;DHT22;5283;48.876;8.962;2023-01-01T01:23:36;11.20;99.90
10472;DHT22;5283;48.876;8.962;2023-01-01T01:26:13;11.20;99.90
10472;DHT22;5283;48.876;8.962;2023-01-01T01:28:40;11.10;99.90
10472;DHT22;5283;48.876;8.962;2023-01-01T01:31:11;11.10;99.90
10472;DHT22;5283;48.876;8.962;2023-01-01T01:33:38;11.00;99.90
10472;DHT22;5283;48.876;8.962;2023-01-01T01:36:05;10.90;99.90
10472;DHT22;5283;48.876;8.962;2023-01-01T01:38:32;11.00;99.90
10472;DHT22;5283;48.876;8.962;2023-01-01T01:40:59;11.00;99.90
10472;DHT22;5283;48.876;8.962;2023-01-01T01:46:05;11.00;99.90
10472;DHT22;5283;48.876;8.962;2023-01-01T01:48:41;11.10;99.90
10472;DHT22;5283;48.876;8.962;2023-01-01T01:51:09;11.10;99.90
10472;DHT22;5283;48.876;8.962;2023-01-01T01:53:42;11.10;99.90
10472;DHT22;5283;48.876;8.962;2023-01-01T01:56:14;11.00;99.90
10472;DHT22;5283;48.876;8.962;2023-01-01T01:58:41;10.90;99.90
10472;DHT22;5283;48.876;8.962;2023-01-01T02:01:08;10.80;99.90
10472;DHT22;5283;48.876;8.962;2023-01-01T02:03:42;10.70;99.90
10472;DHT22;5283;48.876;8.962;2023-01-01T02:06:12;10.80;99.90
10472;DHT22;5283;48.876;8.962;2023-01-01T02:08:39;10.70;99.90
10472;DHT22;5283;48.876;8.962;2023-01-01T02:11:05;10.80;99.90
10472;DHT22;5283;48.876;8.962;2023-01-01T02:13:32;10.80;99.90
10472;DHT22;5283;48.876;8.962;2023-01-01T02:16:19;10.80;99.90
10472;DHT22;5283;48.876;8.962;2023-01-01T02:18:58;10.80;99.90
10472;DHT22;5283;48.876;8.962;2023-01-01T02:21:32;10.90;99.90
10472;DHT22;5283;48.876;8.962;2023-01-01T02:24:20;10.90;99.90
10472;DHT22;5283;48.876;8.962;2023-01-01T02:29:51;10.80;99.90
10472;DHT22;5283;48.876;8.962;2023-01-01T02:32:21;10.60;99.90
10472;DHT22;5283;48.876;8.962;2023-01-01T02:35:03;10.40;99.90
10472;DHT22;5283;48.876;8.962;2023-01-01T02:37:55;10.20;99.90
10472;DHT22;5283;48.876;8.962;2023-01-01T02:40:23;9.70;99.90
10472;DHT22;5283;48.876;8.962;2023-01-01T02:42:52;9.50;99.90
10472;DHT22;5283;48.876;8.962;2023-01-01T02:45:20;9.50;99.90
10472;DHT22;5283;48.876;8.962;2023-01-01T02:47:46;9.50;99.90
10472;DHT22;5283;48.876;8.962;2023-01-01T02:50:17;9.40;99.90
10472;DHT22;5283;48.876;8.962;2023-01-01T02:56:32;9.00;99.90
10472;DHT22;5283;48.876;8.962;2023-01-01T03:02:23;8.70;99.90
10472;DHT22;5283;48.876;8.962;2023-01-01T03:13:10;8.40;99.90
10472;DHT22;5283;48.876;8.962;2023-01-01T03:15:58;8.20;99.90
10472;DHT22;5283;48.876;8.962;2023-01-01T03:20:59;8.40;99.90
10472;DHT22;5283;48.876;8.962;2023-01-01T03:23:34;8.40;99.90
10472;DHT22;5283;48.876;8.962;2023-01-01T03:26:06;8.30;99.90
10472;DHT22;5283;48.876;8.962;2023-01-01T03:28:43;8.30;99.90
10472;DHT22;5283;48.876;8.962;2023-01-01T03:31:14;8.30;99.90
10472;DHT22;5283;48.876;8.962;2023-01-01T03:33:46;8.30;99.90
10472;DHT22;5283;48.876;8.962;2023-01-01T03:36:18;8.30;99.90
10472;DHT22;5283;48.876;8.962;2023-01-01T03:38:57;8.20;99.90
10472;DHT22;5283;48.876;8.962;2023-01-01T03:44:29;8.30;99.90
10472;DHT22;5283;48.876;8.962;2023-01-01T03:46:59;8.50;99.90
10472;DHT22;5283;48.876;8.962;2023-01-01T03:49:26;8.60;99.90
10472;DHT22;5283;48.876;8.962;2023-01-01T03:54:56;9.10;99.90
10472;DHT22;5283;48.876;8.962;2023-01-01T04:03:04;9.40;99.90
10472;DHT22;5283;48.876;8.962;2023-01-01T04:05:36;9.50;99.90
10472;DHT22;5283;48.876;8.962;2023-01-01T04:08:05;9.70;99.90
10472;DHT22;5283;48.876;8.962;2023-01-01T04:10:36;9.80;99.90
10472;DHT22;5283;48.876;8.962;2023-01-01T04:13:05;9.80;99.90
10472;DHT22;5283;48.876;8.962;2023-01-01T04:15:32;9.80;99.90
10472;DHT22;5283;48.876;8.962;2023-01-01T04:17:59;9.70;99.90
10472;DHT22;5283;48.876;8.962;2023-01-01T04:20:26;9.70;99.90
10472;DHT22;5283;48.876;8.962;2023-01-01T04:22:57;9.80;99.90
10472;DHT22;5283;48.876;8.962;2023-01-01T04:25:24;9.90;99.90
10472;DHT22;5283;48.876;8.962;2023-01-01T04:27:51;10.00;99.90
10472;DHT22;5283;48.876;8.962;2023-01-01T04:30:18;9.90;99.90
10472;DHT22;5283;48.876;8.962;2023-01-01T04:32:45;9.90;99.90
10472;DHT22;5283;48.876;8.962;2023-01-01T04:35:13;9.90;99.90
10472;DHT22;5283;48.876;8.962;2023-01-01T04:37:42;9.90;99.90
10472;DHT22;5283;48.876;8.962;2023-01-01T04:40:10;9.90;99.90
10472;DHT22;5283;48.876;8.962;2023-01-01T04:42:37;10.00;99.90
10472;DHT22;5283;48.876;8.962;2023-01-01T04:45:05;10.00;99.90
10472;DHT22;5283;48.876;8.962;2023-01-01T04:47:32;10.00;99.90
10472;DHT22;5283;48.876;8.962;2023-01-01T04:49:59;10.10;99.90
10472;DHT22;5283;48.876;8.962;2023-01-01T04:52:25;10.10;99.90
10472;DHT22;5283;48.876;8.962;2023-01-01T04:54:52;10.00;99.90
10472;DHT22;5283;48.876;8.962;2023-01-01T04:57:19;10.00;99.90
10472;DHT22;5283;48.876;8.962;2023-01-01T04:59:45;10.00;99.90
10472;DHT22;5283;48.876;8.962;2023-01-01T05:02:12;9.90;99.90
10472;DHT22;5283;48.876;8.962;2023-01-01T05:04:39;9.90;99.90
10472;DHT22;5283;48.876;8.962;2023-01-01T05:07:05;9.90;99.90
10472;DHT22;5283;48.876;8.962;2023-01-01T05:09:32;10.00;99.90
10472;DHT22;5283;48.876;8.962;2023-01-01T05:11:59;9.90;99.90
10472;DHT22;5283;48.876;8.962;2023-01-01T05:14:25;10.00;99.90
10472;DHT22;5283;48.876;8.962;2023-01-01T05:16:52;10.10;99.90
10472;DHT22;5283;48.876;8.962;2023-01-01T05:19:19;10.10;99.90
10472;DHT22;5283;48.876;8.962;2023-01-01T05:21:45;10.10;99.90
10472;DHT22;5283;48.876;8.962;2023-01-01T05:24:12;10.10;99.90
10472;DHT22;5283;48.876;8.962;2023-01-01T05:26:42;10.10;99.90
10472;DHT22;5283;48.876;8.962;2023-01-01T05:29:09;10.10;99.90
10472;DHT22;5283;48.876;8.962;2023-01-01T05:31:41;10.10;99.90
10472;DHT22;5283;48.876;8.962;2023-01-01T05:34:07;10.10;99.90
10472;DHT22;5283;48.876;8.962;2023-01-01T05:36:35;10.10;99.90
10472;DHT22;5283;48.876;8.962;2023-01-01T05:39:06;10.10;99.90
10472;DHT22;5283;48.876;8.962;2023-01-01T05:41:33;10.10;99.90
10472;DHT22;5283;48.876;8.962;2023-01-01T05:44:03;10.20;99.90
10472;DHT22;5283;48.876;8.962;2023-01-01T05:46:30;10.20;99.90
10472;DHT22;5283;48.876;8.962;2023-01-01T05:48:57;10.30;99.90
10472;DHT22;5283;48.876;8.962;2023-01-01T05:51:26;10.30;99.90
10472;DHT22;5283;48.876;8.962;2023-01-01T05:53:53;10.30;99.90
10472;DHT22;5283;48.876;8.962;2023-01-01T05:56:21;10.20;99.90
10472;DHT22;5283;48.876;8.962;2023-01-01T05:58:48;10.20;99.90
10472;DHT22;5283;48.876;8.962;2023-01-01T06:01:23;10.20;99.90
10472;DHT22;5283;48.876;8.962;2023-01-01T06:03:51;10.20;99.90
10472;DHT22;5283;48.876;8.962;2023-01-01T06:06:23;10.20;99.90
10472;DHT22;5283;48.876;8.962;2023-01-01T06:09:02;10.10;99.90
10472;DHT22;5283;48.876;8.962;2023-01-01T06:11:30;10.10;99.90
10472;DHT22;5283;48.876;8.962;2023-01-01T06:13:58;10.00;99.90
10472;DHT22;5283;48.876;8.962;2023-01-01T06:16:27;10.10;99.90
10472;DHT22;5283;48.876;8.962;2023-01-01T06:18:54;10.00;99.90
10472;DHT22;5283;48.876;8.962;2023-01-01T06:21:23;10.00;99.90
10472;DHT22;5283;48.876;8.962;2023-01-01T06:23:50;9.80;99.90
10472;DHT22;5283;48.876;8.962;2023-01-01T06:26:19;9.70;99.90
10472;DHT22;5283;48.876;8.962;2023-01-01T06:28:46;9.70;99.90
10472;DHT22;5283;48.876;8.962;2023-01-01T06:31:15;9.70;99.90
10472;DHT22;5283;48.876;8.962;2023-01-01T06:33:42;9.70;99.90
10472;DHT22;5283;48.876;8.962;2023-01-01T06:36:12;9.60;99.90
10472;DHT22;5283;48.876;8.962;2023-01-01T06:38:41;9.60;99.90
10472;DHT22;5283;48.876;8.962;2023-01-01T06:41:14;9.70;99.90
10472;DHT22;5283;48.876;8.962;2023-01-01T06:43:42;9.60;99.90
10472;DHT22;5283;48.876;8.962;2023-01-01T06:46:19;9.50;99.90
10472;DHT22;5283;48.876;8.962;2023-01-01T06:48:48;9.50;99.90
10472;DHT22;5283;48.876;8.962;2023-01-01T06:51:18;9.50;99.90
10472;DHT22;5283;48.876;8.962;2023-01-01T06:53:46;9.40;99.90
10472;DHT22;5283;48.876;8.962;2023-01-01T06:56:14;9.40;99.90
10472;DHT22;5283;48.876;8.962;2023-01-01T06:58:42;9.30;99.90
10472;DHT22;5283;48.876;8.962;2023-01-01T07:01:20;9.30;99.90
10472;DHT22;5283;48.876;8.962;2023-01-01T07:03:58;9.30;99.90
10472;DHT22;5283;48.876;8.962;2023-01-01T07:06:27;9.30;99.90
10472;DHT22;5283;48.876;8.962;2023-01-01T07:08:54;9.30;99.90
10472;DHT22;5283;48.876;8.962;2023-01-01T07:11:21;9.40;99.90
10472;DHT22;5283;48.876;8.962;2023-01-01T07:13:47;9.30;99.90
10472;DHT22;5283;48.876;8.962;2023-01-01T07:16:14;9.40;99.90
10472;DHT22;5283;48.876;8.962;2023-01-01T07:18:41;9.50;99.90
10472;DHT22;5283;48.876;8.962;2023-01-01T07:21:25;9.50;99.90
10472;DHT22;5283;48.876;8.962;2023-01-01T07:23:55;9.50;99.90
10472;DHT22;5283;48.876;8.962;2023-01-01T07:26:25;9.60;99.90
10472;DHT22;5283;48.876;8.962;2023-01-01T07:28:53;9.60;99.90
10472;DHT22;5283;48.876;8.962;2023-01-01T07:31:19;9.70;99.90
10472;DHT22;5283;48.876;8.962;2023-01-01T07:33:46;9.70;99.90
10472;DHT22;5283;48.876;8.962;2023-01-01T07:36:13;9.70;99.90
10472;DHT22;5283;48.876;8.962;2023-01-01T07:38:40;9.70;99.90
10472;DHT22;5283;48.876;8.962;2023-01-01T07:41:07;9.70;99.90
10472;DHT22;5283;48.876;8.962;2023-01-01T07:43:34;9.70;99.90
10472;DHT22;5283;48.876;8.962;2023-01-01T07:46:01;9.80;99.90
10472;DHT22;5283;48.876;8.962;2023-01-01T07:48:28;9.80;99.90
10472;DHT22;5283;48.876;8.962;2023-01-01T07:50:56;9.90;99.90
10472;DHT22;5283;48.876;8.962;2023-01-01T07:53:23;9.80;99.90
10472;DHT22;5283;48.876;8.962;2023-01-01T07:55:50;9.80;99.90
10472;DHT22;5283;48.876;8.962;2023-01-01T07:58:16;9.80;99.90
10472;DHT22;5283;48.876;8.962;2023-01-01T08:00:46;9.80;99.90
10472;DHT22;5283;48.876;8.962;2023-01-01T08:03:14;9.90;99.90
10472;DHT22;5283;48.876;8.962;2023-01-01T08:05:41;9.80;99.90
10472;DHT22;5283;48.876;8.962;2023-01-01T08:08:09;9.80;99.90
10472;DHT22;5283;48.876;8.962;2023-01-01T08:10:36;9.80;99.90
10472;DHT22;5283;48.876;8.962;2023-01-01T08:13:05;9.70;99.90
10472;DHT22;5283;48.876;8.962;2023-01-01T08:15:33;9.80;99.90
10472;DHT22;5283;48.876;8.962;2023-01-01T08:18:02;9.80;99.90
10472;DHT22;5283;48.876;8.962;2023-01-01T08:20:32;9.80;99.90
10472;DHT22;5283;48.876;8.962;2023-01-01T08:22:59;9.90;99.90
10472;DHT22;5283;48.876;8.962;2023-01-01T08:25:30;10.00;99.90
10472;DHT22;5283;48.876;8.962;2023-01-01T08:27:56;10.10;99.90
10472;DHT22;5283;48.876;8.962;2023-01-01T08:30:23;10.10;99.90
10472;DHT22;5283;48.876;8.962;2023-01-01T08:32:50;10.20;99.90
10472;DHT22;5283;48.876;8.962;2023-01-01T08:35:18;10.20;99.90
10472;DHT22;5283;48.876;8.962;2023-01-01T08:37:44;10.20;99.90
10472;DHT22;5283;48.876;8.962;2023-01-01T08:40:12;10.30;99.90
10472;DHT22;5283;48.876;8.962;2023-01-01T08:42:39;10.50;99.90
10472;DHT22;5283;48.876;8.962;2023-01-01T08:45:06;10.60;99.90
10472;DHT22;5283;48.876;8.962;2023-01-01T08:47:33;10.80;99.90
10472;DHT22;5283;48.876;8.962;2023-01-01T08:50:00;11.00;99.90
10472;DHT22;5283;48.876;8.962;2023-01-01T08:52:27;11.10;99.90
10472;DHT22;5283;48.876;8.962;2023-01-01T08:54:53;11.30;99.90
10472;DHT22;5283;48.876;8.962;2023-01-01T08:57:20;11.50;99.90
10472;DHT22;5283;48.876;8.962;2023-01-01T08:59:47;11.60;99.90
10472;DHT22;5283;48.876;8.962;2023-01-01T09:02:14;11.70;99.90
10472;DHT22;5283;48.876;8.962;2023-01-01T09:04:40;11.80;99.90
10472;DHT22;5283;48.876;8.962;2023-01-01T09:07:07;11.90;99.90
10472;DHT22;5283;48.876;8.962;2023-01-01T09:09:34;11.90;99.90
10472;DHT22;5283;48.876;8.962;2023-01-01T09:12:01;12.00;99.90
10472;DHT22;5283;48.876;8.962;2023-01-01T09:14:33;11.90;99.90
10472;DHT22;5283;48.876;8.962;2023-01-01T09:17:01;12.00;99.90
10472;DHT22;5283;48.876;8.962;2023-01-01T09:19:28;11.90;99.90
10472;DHT22;5283;48.876;8.962;2023-01-01T09:21:54;11.90;99.90
10472;DHT22;5283;48.876;8.962;2023-01-01T09:24:21;11.90;99.90
10472;DHT22;5283;48.876;8.962;2023-01-01T09:26:48;11.90;99.90
10472;DHT22;5283;48.876;8.962;2023-01-01T09:29:15;12.00;99.90
10472;DHT22;5283;48.876;8.962;2023-01-01T09:31:44;12.00;99.90
10472;DHT22;5283;48.876;8.962;2023-01-01T09:34:11;12.10;99.90
10472;DHT22;5283;48.876;8.962;2023-01-01T09:36:37;12.20;99.90
10472;DHT22;5283;48.876;8.962;2023-01-01T09:39:04;12.40;99.90
10472;DHT22;5283;48.876;8.962;2023-01-01T09:41:40;12.50;99.90
10472;DHT22;5283;48.876;8.962;2023-01-01T09:46:48;12.90;99.90
10472;DHT22;5283;48.876;8.962;2023-01-01T09:49:24;13.10;99.90
10472;DHT22;5283;48.876;8.962;2023-01-01T09:51:55;13.20;99.90
10472;DHT22;5283;48.876;8.962;2023-01-01T09:54:31;13.20;99.90
10472;DHT22;5283;48.876;8.962;2023-01-01T09:57:05;13.30;99.90
10472;DHT22;5283;48.876;8.962;2023-01-01T09:59:34;13.40;99.90
10472;DHT22;5283;48.876;8.962;2023-01-01T10:04:58;13.60;99.90
10472;DHT22;5283;48.876;8.962;2023-01-01T10:13:43;13.70;99.90
10472;DHT22;5283;48.876;8.962;2023-01-01T10:19:06;13.80;99.90
10472;DHT22;5283;48.876;8.962;2023-01-01T10:21:39;13.90;99.90
10472;DHT22;5283;48.876;8.962;2023-01-01T10:27:31;14.00;99.90
10472;DHT22;5283;48.876;8.962;2023-01-01T10:30:01;14.20;99.90
10472;DHT22;5283;48.876;8.962;2023-01-01T10:32:34;14.30;99.90
10472;DHT22;5283;48.876;8.962;2023-01-01T10:35:09;14.40;99.90
10472;DHT22;5283;48.876;8.962;2023-01-01T10:37:37;14.60;99.90
10472;DHT22;5283;48.876;8.962;2023-01-01T10:40:14;14.70;99.90
10472;DHT22;5283;48.876;8.962;2023-01-01T10:42:48;14.80;99.90
10472;DHT22;5283;48.876;8.962;2023-01-01T10:45:19;14.90;99.90
10472;DHT22;5283;48.876;8.962;2023-01-01T10:48:14;15.00;99.90
10472;DHT22;5283;48.876;8.962;2023-01-01T10:50:53;15.10;99.90
10472;DHT22;5283;48.876;8.962;2023-01-01T10:56:19;15.40;99.90
10472;DHT22;5283;48.876;8.962;2023-01-01T10:58:51;15.40;99.90
10472;DHT22;5283;48.876;8.962;2023-01-01T11:01:26;15.50;99.90
10472;DHT22;5283;48.876;8.962;2023-01-01T11:03:58;15.60;99.90
10472;DHT22;5283;48.876;8.962;2023-01-01T11:06:36;15.60;99.90
10472;DHT22;5283;48.876;8.962;2023-01-01T11:09:05;15.70;99.90
10472;DHT22;5283;48.876;8.962;2023-01-01T11:11:46;15.70;99.90
10472;DHT22;5283;48.876;8.962;2023-01-01T11:14:21;15.80;99.90
10472;DHT22;5283;48.876;8.962;2023-01-01T11:16:51;15.90;99.90
10472;DHT22;5283;48.876;8.962;2023-01-01T11:19:31;15.90;99.90
10472;DHT22;5283;48.876;8.962;2023-01-01T11:21:59;16.00;99.90
10472;DHT22;5283;48.876;8.962;2023-01-01T11:24:27;16.00;99.90
10472;DHT22;5283;48.876;8.962;2023-01-01T11:27:22;16.10;99.90
10472;DHT22;5283;48.876;8.962;2023-01-01T11:29:49;16.10;99.90
10472;DHT22;5283;48.876;8.962;2023-01-01T11:32:32;16.10;99.90
10472;DHT22;5283;48.876;8.962;2023-01-01T11:35:03;16.10;99.90
10472;DHT22;5283;48.876;8.962;2023-01-01T11:37:33;16.10;99.90
10472;DHT22;5283;48.876;8.962;2023-01-01T11:40:03;16.10;99.90
10472;DHT22;5283;48.876;8.962;2023-01-01T11:42:32;16.00;99.90
10472;DHT22;5283;48.876;8.962;2023-01-01T11:45:07;16.00;99.90
10472;DHT22;5283;48.876;8.962;2023-01-01T11:47:37;16.00;99.90
10472;DHT22;5283;48.876;8.962;2023-01-01T11:52:49;16.00;99.90
10472;DHT22;5283;48.876;8.962;2023-01-01T11:55:40;16.00;99.90
10472;DHT22;5283;48.876;8.962;2023-01-01T11:58:17;15.90;99.90
10472;DHT22;5283;48.876;8.962;2023-01-01T12:00:49;15.90;99.90
10472;DHT22;5283;48.876;8.962;2023-01-01T12:03:21;15.90;99.90
10472;DHT22;5283;48.876;8.962;2023-01-01T12:06:18;15.80;99.90
10472;DHT22;5283;48.876;8.962;2023-01-01T12:09:11;15.80;99.90
10472;DHT22;5283;48.876;8.962;2023-01-01T12:12:15;15.90;99.90
10472;DHT22;5283;48.876;8.962;2023-01-01T12:14:55;15.90;99.90
10472;DHT22;5283;48.876;8.962;2023-01-01T12:17:26;16.00;99.90
10472;DHT22;5283;48.876;8.962;2023-01-01T12:20:25;16.00;99.90
10472;DHT22;5283;48.876;8.962;2023-01-01T12:22:55;16.10;99.90
10472;DHT22;5283;48.876;8.962;2023-01-01T12:25:22;16.10;99.90
10472;DHT22;5283;48.876;8.962;2023-01-01T12:28:18;16.10;99.90
10472;DHT22;5283;48.876;8.962;2023-01-01T12:30:58;16.20;99.90
10472;DHT22;5283;48.876;8.962;2023-01-01T12:36:09;16.30;99.90
10472;DHT22;5283;48.876;8.962;2023-01-01T12:41:37;16.40;99.90
10472;DHT22;5283;48.876;8.962;2023-01-01T12:46:44;16.40;99.90
10472;DHT22;5283;48.876;8.962;2023-01-01T12:57:31;16.50;99.90
10472;DHT22;5283;48.876;8.962;2023-01-01T13:00:02;16.50;99.90
10472;DHT22;5283;48.876;8.962;2023-01-01T13:02:33;16.50;99.90
10472;DHT22;5283;48.876;8.962;2023-01-01T13:05:20;16.50;99.90
10472;DHT22;5283;48.876;8.962;2023-01-01T13:07:55;16.50;99.90
10472;DHT22;5283;48.876;8.962;2023-01-01T13:10:28;16.50;99.90
10472;DHT22;5283;48.876;8.962;2023-01-01T13:12:57;16.50;99.90
10472;DHT22;5283;48.876;8.962;2023-01-01T13:18:26;16.50;99.90
10472;DHT22;5283;48.876;8.962;2023-01-01T13:39:55;16.40;99.90
10472;DHT22;5283;48.876;8.962;2023-01-01T13:42:45;16.40;99.90
10472;DHT22;5283;48.876;8.962;2023-01-01T13:45:25;16.30;99.90
10472;DHT22;5283;48.876;8.962;2023-01-01T13:54:15;16.10;99.90
10472;DHT22;5283;48.876;8.962;2023-01-01T13:56:59;16.10;99.90
10472;DHT22;5283;48.876;8.962;2023-01-01T13:59:46;16.10;99.90
10472;DHT22;5283;48.876;8.962;2023-01-01T14:02:29;15.90;99.90
10472;DHT22;5283;48.876;8.962;2023-01-01T14:05:06;15.80;99.90
10472;DHT22;5283;48.876;8.962;2023-01-01T14:12:42;15.60;99.90
10472;DHT22;5283;48.876;8.962;2023-01-01T14:15:23;15.60;99.90
10472;DHT22;5283;48.876;8.962;2023-01-01T14:17:52;15.40;99.90
10472;DHT22;5283;48.876;8.962;2023-01-01T14:20:22;15.20;99.90
10472;DHT22;5283;48.876;8.962;2023-01-01T14:22:50;14.90;99.90
10472;DHT22;5283;48.876;8.962;2023-01-01T14:25:27;14.70;99.90
10472;DHT22;5283;48.876;8.962;2023-01-01T14:27:56;14.60;99.90
10472;DHT22;5283;48.876;8.962;2023-01-01T14:30:24;14.30;99.90
10472;DHT22;5283;48.876;8.962;2023-01-01T14:32:56;14.20;99.90
10472;DHT22;5283;48.876;8.962;2023-01-01T14:35:23;14.00;99.90
10472;DHT22;5283;48.876;8.962;2023-01-01T14:37:50;13.90;99.90
10472;DHT22;5283;48.876;8.962;2023-01-01T14:40:18;13.90;99.90
10472;DHT22;5283;48.876;8.962;2023-01-01T14:42:55;13.90;99.90
10472;DHT22;5283;48.876;8.962;2023-01-01T14:45:22;13.90;99.90
10472;DHT22;5283;48.876;8.962;2023-01-01T14:47:52;13.90;99.90
10472;DHT22;5283;48.876;8.962;2023-01-01T14:50:25;13.90;99.90
10472;DHT22;5283;48.876;8.962;2023-01-01T14:52:56;13.90;99.90
10472;DHT22;5283;48.876;8.962;2023-01-01T14:55:48;13.80;99.90
10472;DHT22;5283;48.876;8.962;2023-01-01T14:58:22;13.70;99.90
10472;DHT22;5283;48.876;8.962;2023-01-01T15:00:50;13.70;99.90
10472;DHT22;5283;48.876;8.962;2023-01-01T15:03:21;13.70;99.90
10472;DHT22;5283;48.876;8.962;2023-01-01T15:05:59;13.70;99.90
10472;DHT22;5283;48.876;8.962;2023-01-01T15:08:26;13.70;99.90
10472;DHT22;5283;48.876;8.962;2023-01-01T15:10:54;13.60;99.90
10472;DHT22;5283;48.876;8.962;2023-01-01T15:13:24;13.50;99.90
10472;DHT22;5283;48.876;8.962;2023-01-01T15:15:56;13.30;99.90
10472;DHT22;5283;48.876;8.962;2023-01-01T15:18:36;13.10;99.90
10472;DHT22;5283;48.876;8.962;2023-01-01T15:21:32;12.90;99.90
10472;DHT22;5283;48.876;8.962;2023-01-01T15:23:57;12.70;99.90
10472;DHT22;5283;48.876;8.962;2023-01-01T15:28:56;12.20;99.90
10472;DHT22;5283;48.876;8.962;2023-01-01T15:31:39;11.90;99.90
10472;DHT22;5283;48.876;8.962;2023-01-01T15:34:23;11.50;99.90
10472;DHT22;5283;48.876;8.962;2023-01-01T15:36:51;11.20;99.90
10472;DHT22;5283;48.876;8.962;2023-01-01T15:39:19;11.10;99.90
10472;DHT22;5283;48.876;8.962;2023-01-01T15:41:51;11.00;99.90
10472;DHT22;5283;48.876;8.962;2023-01-01T15:46:50;10.80;99.90
10472;DHT22;5283;48.876;8.962;2023-01-01T15:49:23;10.60;99.90
10472;DHT22;5283;48.876;8.962;2023-01-01T15:51:52;10.50;99.90
10472;DHT22;5283;48.876;8.962;2023-01-01T15:54:19;10.30;99.90
10472;DHT22;5283;48.876;8.962;2023-01-01T15:56:46;10.20;99.90
10472;DHT22;5283;48.876;8.962;2023-01-01T16:01:45;9.90;99.90
10472;DHT22;5283;48.876;8.962;2023-01-01T16:06:43;9.80;99.90
10472;DHT22;5283;48.876;8.962;2023-01-01T16:09:14;9.70;99.90
10472;DHT22;5283;48.876;8.962;2023-01-01T16:11:42;9.50;99.90
10472;DHT22;5283;48.876;8.962;2023-01-01T16:14:10;9.50;99.90
10472;DHT22;5283;48.876;8.962;2023-01-01T16:16:38;9.50;99.90
10472;DHT22;5283;48.876;8.962;2023-01-01T16:19:13;9.30;99.90
10472;DHT22;5283;48.876;8.962;2023-01-01T16:21:41;9.20;99.90
10472;DHT22;5283;48.876;8.962;2023-01-01T16:24:15;9.10;99.90
10472;DHT22;5283;48.876;8.962;2023-01-01T16:26:42;8.90;99.90
10472;DHT22;5283;48.876;8.962;2023-01-01T16:29:08;8.80;99.90
10472;DHT22;5283;48.876;8.962;2023-01-01T16:31:36;8.90;99.90
10472;DHT22;5283;48.876;8.962;2023-01-01T16:34:03;8.90;99.90
10472;DHT22;5283;48.876;8.962;2023-01-01T16:36:31;8.80;99.90
10472;DHT22;5283;48.876;8.962;2023-01-01T16:38:58;8.80;99.90
10472;DHT22;5283;48.876;8.962;2023-01-01T16:41:27;8.70;99.90
10472;DHT22;5283;48.876;8.962;2023-01-01T16:43:55;8.60;99.90
10472;DHT22;5283;48.876;8.962;2023-01-01T16:46:23;8.40;99.90
10472;DHT22;5283;48.876;8.962;2023-01-01T16:48:51;8.10;99.90
10472;DHT22;5283;48.876;8.962;2023-01-01T16:51:27;8.00;99.90
10472;DHT22;5283;48.876;8.962;2023-01-01T16:53:55;7.80;99.90
10472;DHT22;5283;48.876;8.962;2023-01-01T16:56:22;7.80;99.90
10472;DHT22;5283;48.876;8.962;2023-01-01T16:58:49;7.80;99.90
10472;DHT22;5283;48.876;8.962;2023-01-01T17:01:19;7.70;99.90
10472;DHT22;5283;48.876;8.962;2023-01-01T17:03:46;7.60;99.90
10472;DHT22;5283;48.876;8.962;2023-01-01T17:06:13;7.40;99.90
10472;DHT22;5283;48.876;8.962;2023-01-01T17:08:40;7.30;99.90
10472;DHT22;5283;48.876;8.962;2023-01-01T17:11:12;7.20;99.90
10472;DHT22;5283;48.876;8.962;2023-01-01T17:13:41;7.20;99.90
10472;DHT22;5283;48.876;8.962;2023-01-01T17:16:09;7.10;99.90
10472;DHT22;5283;48.876;8.962;2023-01-01T17:18:36;7.10;99.90
10472;DHT22;5283;48.876;8.962;2023-01-01T17:21:21;7.00;99.90
10472;DHT22;5283;48.876;8.962;2023-01-01T17:23:48;6.90;99.90
10472;DHT22;5283;48.876;8.962;2023-01-01T17:26:17;6.80;99.90
10472;DHT22;5283;48.876;8.962;2023-01-01T17:28:46;6.70;99.90
10472;DHT22;5283;48.876;8.962;2023-01-01T17:31:16;6.50;99.90
10472;DHT22;5283;48.876;8.962;2023-01-01T17:33:43;6.50;99.90
10472;DHT22;5283;48.876;8.962;2023-01-01T17:36:10;6.50;99.90
10472;DHT22;5283;48.876;8.962;2023-01-01T17:38:37;6.60;99.90
10472;DHT22;5283;48.876;8.962;2023-01-01T17:41:05;6.70;99.90
10472;DHT22;5283;48.876;8.962;2023-01-01T17:43:34;6.70;99.90
10472;DHT22;5283;48.876;8.962;2023-01-01T17:46:13;6.70;99.90
10472;DHT22;5283;48.876;8.962;2023-01-01T17:48:41;6.70;99.90
10472;DHT22;5283;48.876;8.962;2023-01-01T17:51:09;6.80;99.90
10472;DHT22;5283;48.876;8.962;2023-01-01T17:53:36;6.70;99.90
10472;DHT22;5283;48.876;8.962;2023-01-01T17:56:11;6.70;99.90
10472;DHT22;5283;48.876;8.962;2023-01-01T17:58:39;6.60;99.90
10472;DHT22;5283;48.876;8.962;2023-01-01T18:03:44;6.70;99.90
10472;DHT22;5283;48.876;8.962;2023-01-01T18:06:11;6.60;99.90
10472;DHT22;5283;48.876;8.962;2023-01-01T18:08:38;6.60;99.90
10472;DHT22;5283;48.876;8.962;2023-01-01T18:11:04;6.60;99.90
10472;DHT22;5283;48.876;8.962;2023-01-01T18:13:31;6.60;99.90
10472;DHT22;5283;48.876;8.962;2023-01-01T18:16:02;6.80;99.90